createdAt,value
2019-04-22T00:01:38.176Z,65.80
2019-04-22T00:04:16.243Z,67.60
2019-04-22T00:07:05.727Z,65.70
2019-04-22T00:09:45.763Z,64.40
2019-04-22T00:12:19.657Z,63.20
2019-04-22T00:14:43.944Z,62.40
2019-04-22T00:17:22.253Z,62.30
2019-04-22T00:19:57.634Z,60.70
2019-04-22T00:22:29.207Z,60.40
2019-04-22T00:25:01.414Z,59.80
2019-04-22T00:27:33.934Z,59.20
2019-04-22T00:30:07.923Z,58.60
2019-04-22T00:32:37.008Z,57.70
2019-04-22T00:35:06.642Z,56.50
2019-04-22T00:37:46.247Z,56.70
2019-04-22T00:40:20.348Z,56.10
2019-04-22T00:45:40.475Z,54.00
2019-04-22T00:47:50.650Z,54.60
2019-04-22T00:53:04.541Z,53.20
2019-04-22T00:55:39.930Z,52.40
2019-04-22T00:58:12.330Z,53.40
2019-04-22T01:00:44.288Z,53.00
2019-04-22T01:03:21.462Z,52.00
2019-04-22T01:05:46.851Z,51.90
2019-04-22T01:08:23.597Z,51.80
2019-04-22T01:10:55.445Z,52.10
2019-04-22T01:13:26.161Z,51.90
2019-04-22T01:16:04.480Z,52.40
2019-04-22T01:18:32.608Z,52.80
2019-04-22T01:21:18.581Z,53.10
2019-04-22T01:23:34.654Z,53.90
2019-04-22T01:26:13.985Z,54.20
2019-04-22T01:35:37.462Z,54.40
2019-04-22T01:38:13.675Z,54.40
2019-04-22T01:40:59.945Z,54.40
2019-04-22T01:43:33.148Z,53.90
2019-04-22T01:50:31.779Z,52.10
2019-04-22T02:16:34.243Z,49.60
2019-04-22T02:56:34.121Z,43.30
2019-04-22T02:59:11.666Z,44.00
2019-04-22T03:01:47.733Z,44.40
2019-04-22T03:18:19.438Z,42.60
2019-04-22T03:20:51.944Z,44.20
2019-04-22T03:28:38.337Z,43.40
2019-04-22T03:31:09.306Z,43.80
2019-04-22T03:36:42.273Z,42.60
2019-04-22T03:39:06.171Z,44.50
2019-04-22T03:41:27.432Z,44.70
2019-04-22T03:44:08.234Z,43.20
2019-04-22T03:46:22.211Z,43.00
2019-04-22T03:49:10.863Z,43.90
2019-04-22T03:51:38.889Z,42.70
2019-04-22T03:57:10.105Z,42.90
2019-04-22T03:59:24.233Z,43.00
2019-04-22T04:07:03.861Z,43.30
2019-04-22T04:09:23.986Z,43.70
2019-04-22T04:14:26.889Z,42.60
2019-04-22T04:17:02.272Z,43.70
2019-04-22T04:19:45.979Z,43.10
2019-04-22T04:22:09.764Z,42.70
2019-04-22T04:30:02.559Z,43.20
2019-04-22T04:37:42.489Z,40.90
2019-04-22T04:40:07.931Z,42.10
2019-04-22T05:49:08.138Z,40.00
2019-04-22T05:57:38.927Z,41.60
2019-04-22T06:00:14.369Z,42.40
2019-04-22T06:05:19.636Z,40.90
2019-04-22T06:07:59.426Z,41.50
2019-04-22T06:24:27.961Z,41.60
2019-04-22T06:29:31.896Z,40.60
2019-04-22T06:32:23.225Z,41.40
2019-04-22T06:34:42.170Z,40.80
2019-04-22T06:39:44.756Z,36.90
2019-04-22T06:42:21.792Z,39.80
2019-04-22T06:44:52.613Z,41.70
2019-04-22T06:47:40.170Z,40.20
2019-04-22T06:49:55.738Z,40.70
2019-04-22T06:52:48.289Z,41.10
2019-04-22T06:57:36.357Z,41.00
2019-04-22T07:00:14.317Z,40.30
2019-04-22T07:03:06.081Z,39.60
2019-04-22T07:05:17.971Z,38.30
2019-04-22T07:07:51.889Z,40.70
2019-04-22T07:10:30.452Z,38.80
2019-04-22T07:12:52.383Z,40.10
2019-04-22T07:15:43.596Z,40.60
2019-04-22T07:18:03.058Z,41.20
2019-04-22T07:20:33.296Z,41.30
2019-04-22T07:23:05.480Z,40.90
2019-04-22T07:25:36.061Z,41.40
2019-04-22T07:28:14.213Z,39.70
2019-04-22T07:30:57.955Z,40.90
2019-04-22T07:33:19.597Z,43.00
2019-04-22T07:36:00.585Z,44.80
2019-04-22T07:38:25.532Z,46.50
2019-04-22T07:41:05.513Z,47.40
2019-04-22T07:43:50.178Z,48.50
2019-04-22T07:46:00.307Z,50.10
2019-04-22T07:48:38.306Z,52.30
2019-04-22T07:51:07.675Z,53.30
2019-04-22T07:53:37.141Z,51.80
2019-04-22T07:56:11.925Z,52.10
2019-04-22T07:58:45.793Z,54.10
2019-04-22T08:04:03.325Z,55.70
2019-04-22T08:06:26.559Z,54.90
2019-04-22T08:09:01.905Z,55.40
2019-04-22T08:14:01.562Z,58.40
2019-04-22T08:16:38.330Z,58.70
2019-04-22T08:19:15.760Z,59.50
2019-04-22T08:21:52.102Z,67.60
2019-04-22T08:24:24.885Z,58.50
2019-04-22T08:26:58.291Z,61.50
2019-04-22T08:29:38.119Z,66.40
2019-04-22T08:32:05.207Z,62.80
2019-04-22T08:34:37.331Z,66.80
2019-04-22T08:39:42.000Z,67.00
2019-04-22T08:42:27.725Z,71.60
2019-04-22T09:22:17.320Z,70.30
2019-04-22T09:25:10.398Z,71.30
2019-04-22T09:27:32.959Z,73.20
2019-04-22T09:30:16.806Z,72.40
2019-04-22T09:32:31.213Z,71.00
2019-04-22T09:37:42.049Z,70.70
2019-04-22T09:40:10.639Z,71.10
2019-04-22T09:42:43.735Z,71.20
2019-04-22T09:45:13.153Z,71.80
2019-04-22T09:47:53.866Z,69.70
2019-04-22T09:50:15.339Z,66.90
2019-04-22T09:55:27.063Z,72.30
2019-04-22T09:57:58.889Z,72.10
2019-04-22T10:00:31.536Z,71.60
2019-04-22T10:05:32.811Z,74.20
2019-04-22T10:08:22.001Z,65.40
2019-04-22T10:10:46.488Z,67.50
2019-04-22T10:13:23.871Z,70.50
2019-04-22T10:15:49.176Z,71.40
2019-04-22T10:18:20.461Z,74.20
2019-04-22T10:20:54.509Z,80.60
2019-04-22T10:23:26.509Z,80.40
2019-04-22T10:25:57.379Z,82.70
2019-04-22T10:28:40.940Z,83.70
2019-04-22T10:31:03.303Z,82.50
2019-04-22T10:33:31.903Z,80.30
2019-04-22T10:35:47.595Z,82.90
2019-04-22T10:38:20.049Z,74.00
2019-04-22T10:40:52.464Z,78.60
2019-04-22T10:43:25.313Z,91.30
2019-04-22T10:45:57.674Z,92.10
2019-04-22T10:48:30.283Z,92.20
2019-04-22T10:51:01.013Z,92.00
2019-04-22T10:53:33.362Z,88.10
2019-04-22T10:56:05.212Z,89.60
2019-04-22T10:58:38.308Z,88.20
2019-04-22T11:01:09.643Z,90.10
2019-04-22T11:03:41.527Z,89.60
2019-04-22T11:06:12.725Z,88.50
2019-04-22T11:08:52.315Z,87.80
2019-04-22T11:11:31.528Z,89.60
2019-04-22T11:13:49.656Z,90.60
2019-04-22T11:16:21.422Z,91.80
2019-04-22T11:18:53.706Z,92.20
2019-04-22T11:21:25.382Z,92.60
2019-04-22T11:23:56.790Z,92.50
2019-04-22T11:26:28.256Z,92.50
2019-04-22T11:28:59.603Z,92.50
2019-04-22T11:31:32.336Z,92.50
2019-04-22T11:34:04.549Z,92.80
2019-04-22T11:36:37.062Z,92.60
2019-04-22T11:39:13.114Z,92.90
2019-04-22T11:41:44.215Z,93.00
2019-04-22T11:44:17.066Z,93.00
2019-04-22T11:46:49.560Z,93.10
2019-04-22T11:49:21.661Z,92.80
2019-04-22T11:51:54.223Z,92.80
2019-04-22T11:54:26.335Z,92.70
2019-04-22T11:56:58.989Z,92.30
2019-04-22T11:59:30.925Z,92.00
2019-04-22T12:02:02.643Z,91.80
2019-04-22T12:04:33.980Z,91.80
2019-04-22T12:07:05.904Z,92.30
2019-04-22T12:09:37.671Z,92.40
2019-04-22T12:12:09.733Z,92.00
2019-04-22T12:14:42.431Z,91.80
2019-04-22T12:17:14.281Z,92.10
2019-04-22T12:19:46.350Z,92.10
2019-04-22T12:22:18.098Z,92.40
2019-04-22T12:24:50.328Z,92.70
2019-04-22T12:27:22.831Z,92.60
2019-04-22T12:29:54.921Z,92.50
2019-04-22T12:32:27.436Z,92.40
2019-04-22T12:34:59.801Z,92.60
2019-04-22T12:37:36.038Z,92.30
2019-04-22T12:40:04.269Z,92.50
2019-04-22T12:42:37.573Z,92.40
2019-04-22T12:45:12.135Z,92.40
2019-04-22T12:47:44.156Z,92.10
2019-04-22T12:50:25.351Z,92.10
2019-04-22T12:52:57.048Z,92.10
2019-04-22T12:55:25.858Z,92.20
2019-04-22T12:58:00.322Z,92.30
2019-04-22T13:00:28.465Z,92.20
2019-04-22T13:03:00.959Z,92.30
2019-04-22T13:05:33.297Z,92.10
2019-04-22T13:08:05.455Z,91.90
2019-04-22T13:10:45.615Z,92.00
2019-04-22T13:13:09.786Z,91.70
2019-04-22T13:15:42.425Z,91.80
2019-04-22T13:18:21.368Z,91.60
2019-04-22T13:20:46.346Z,91.50
2019-04-22T13:23:18.071Z,91.60
2019-04-22T13:25:49.907Z,91.60
2019-04-22T13:28:22.904Z,91.80
2019-04-22T13:30:54.819Z,91.60
2019-04-22T13:33:26.266Z,91.70
2019-04-22T13:35:57.760Z,91.40
2019-04-22T13:38:31.052Z,91.30
2019-04-22T13:41:16.405Z,91.30
2019-04-22T13:43:36.657Z,91.40
2019-04-22T13:46:08.040Z,91.20
2019-04-22T13:49:09.708Z,91.30
2019-04-22T13:51:45.173Z,91.20
2019-04-22T13:54:42.410Z,91.30
2019-04-22T13:56:40.292Z,91.20
2019-04-22T13:59:01.928Z,91.30
2019-04-22T14:01:26.177Z,91.40
2019-04-22T14:04:00.708Z,91.30
2019-04-22T14:06:32.545Z,91.40
2019-04-22T14:09:05.243Z,91.30
2019-04-22T14:11:47.446Z,91.30
2019-04-22T14:14:10.968Z,91.40
2019-04-22T14:16:43.053Z,91.30
2019-04-22T14:19:14.261Z,91.00
2019-04-22T14:21:47.485Z,91.20
2019-04-22T14:24:19.812Z,91.10
2019-04-22T14:26:58.930Z,90.90
2019-04-22T14:29:23.887Z,90.40
2019-04-22T14:32:06.680Z,90.20
2019-04-22T14:34:30.219Z,90.70
2019-04-22T14:37:01.535Z,90.10
2019-04-22T14:39:33.744Z,90.00
2019-04-22T14:42:21.739Z,90.80
2019-04-22T14:47:34.906Z,91.00
2019-04-22T14:50:02.437Z,91.50
2019-04-22T14:52:37.623Z,92.00
2019-04-22T14:54:54.315Z,91.90
2019-04-22T14:57:16.935Z,92.10
2019-04-22T14:59:48.268Z,91.80
2019-04-22T15:02:21.435Z,90.40
2019-04-22T15:04:54.240Z,91.20
2019-04-22T15:07:25.339Z,91.00
2019-04-22T15:09:57.740Z,90.70
2019-04-22T15:12:36.745Z,88.60
2019-04-22T15:15:03.843Z,88.70
2019-04-22T15:17:36.785Z,86.60
2019-04-22T15:20:11.912Z,89.60
2019-04-22T15:22:44.305Z,89.00
2019-04-22T15:25:17.005Z,89.00
2019-04-22T15:27:48.813Z,88.70
2019-04-22T15:30:21.357Z,88.70
2019-04-22T15:32:53.673Z,88.40
2019-04-22T15:35:25.340Z,87.60
2019-04-22T15:37:57.289Z,86.90
2019-04-22T15:40:29.067Z,85.80
2019-04-22T15:43:02.566Z,85.80
2019-04-22T15:45:34.950Z,85.10
2019-04-22T15:48:06.425Z,84.80
2019-04-22T15:50:37.332Z,84.00
2019-04-22T15:53:09.778Z,83.50
2019-04-22T15:55:41.098Z,82.70
2019-04-22T15:58:12.645Z,81.80
2019-04-22T16:00:53.932Z,81.00
2019-04-22T16:03:18.451Z,79.20
2019-04-22T16:05:50.274Z,78.70
2019-04-22T16:08:21.697Z,78.30
2019-04-22T16:10:53.683Z,78.20
2019-04-22T16:13:28.618Z,77.70
2019-04-22T16:15:58.504Z,77.70
2019-04-22T16:18:28.826Z,77.70
2019-04-22T16:21:00.167Z,77.70
2019-04-22T16:23:34.100Z,78.50
2019-04-22T16:26:07.551Z,80.20
2019-04-22T16:28:39.721Z,81.30
2019-04-22T16:31:11.279Z,82.80
2019-04-22T16:33:45.402Z,83.50
2019-04-22T16:36:14.496Z,84.00
2019-04-22T16:38:46.774Z,83.80
2019-04-22T16:41:17.174Z,82.70
2019-04-22T16:43:48.853Z,79.50
2019-04-22T16:46:21.325Z,81.60
2019-04-22T16:48:53.816Z,81.30
2019-04-22T16:51:25.424Z,79.80
2019-04-22T16:53:57.987Z,81.90
2019-04-22T16:56:33.159Z,82.00
2019-04-22T16:59:04.423Z,81.00
2019-04-22T17:01:36.884Z,81.90
2019-04-22T17:04:10.404Z,81.90
2019-04-22T17:06:43.616Z,82.50
2019-04-22T17:09:17.515Z,83.30
2019-04-22T17:11:48.093Z,83.80
2019-04-22T17:14:30.498Z,84.30
2019-04-22T17:16:52.747Z,84.80
2019-04-22T17:19:24.197Z,84.90
2019-04-22T17:21:55.640Z,84.10
2019-04-22T17:24:27.744Z,84.30
2019-04-22T17:27:00.081Z,84.80
2019-04-22T17:29:30.450Z,83.60
2019-04-22T17:32:06.435Z,83.40
2019-04-22T17:34:35.779Z,83.40
2019-04-22T17:37:14.270Z,82.60
2019-04-22T17:39:49.052Z,82.40
2019-04-22T17:42:29.271Z,82.00
2019-04-22T17:45:12.394Z,81.20
2019-04-22T17:47:36.499Z,81.00
2019-04-22T17:50:21.016Z,80.20
2019-04-22T17:52:59.517Z,80.00
2019-04-22T17:55:19.510Z,80.50
2019-04-22T17:57:51.064Z,80.40
2019-04-22T18:00:25.415Z,80.90
2019-04-22T18:02:49.353Z,80.90
2019-04-22T18:05:17.157Z,80.90
2019-04-22T18:08:10.006Z,80.90
2019-04-22T18:10:57.406Z,80.90
2019-04-22T18:13:20.609Z,80.90
2019-04-22T18:15:51.505Z,80.90
2019-04-22T18:18:19.107Z,80.90
2019-04-22T18:20:48.927Z,80.50
2019-04-22T18:23:11.984Z,80.80
2019-04-22T18:25:57.263Z,81.80
2019-04-22T18:28:30.094Z,84.40
2019-04-22T18:30:57.045Z,82.30
2019-04-22T18:33:28.899Z,81.40
2019-04-22T18:36:03.857Z,78.30
2019-04-22T18:38:46.805Z,78.00
2019-04-22T18:41:04.752Z,77.50
2019-04-22T18:43:48.828Z,77.80
2019-04-22T18:46:18.255Z,82.10
2019-04-22T18:48:54.310Z,78.80
2019-04-22T18:51:29.521Z,78.60
2019-04-22T18:54:01.981Z,77.80
2019-04-22T18:56:32.556Z,78.20
2019-04-22T18:58:57.175Z,78.60
2019-04-22T19:01:17.852Z,78.20
2019-04-22T19:04:01.347Z,79.90
2019-04-22T19:06:52.333Z,80.30
2019-04-22T19:09:20.262Z,79.30
2019-04-22T19:12:01.694Z,78.60
2019-04-22T19:14:25.326Z,78.70
2019-04-22T19:17:07.657Z,78.50
2019-04-22T19:19:43.619Z,79.40
2019-04-22T19:21:57.827Z,80.60
2019-04-22T19:24:31.993Z,79.80
2019-04-22T19:27:02.025Z,78.90
2019-04-22T19:29:39.891Z,78.60
2019-04-22T19:32:06.904Z,79.60
2019-04-22T19:34:46.642Z,79.30
2019-04-22T19:37:13.182Z,78.30
2019-04-22T19:40:01.214Z,78.60
2019-04-22T19:42:30.446Z,79.90
2019-04-22T19:44:59.209Z,78.90
2019-04-22T19:47:35.980Z,78.90
2019-04-22T19:52:37.013Z,82.00
2019-04-22T19:55:11.063Z,80.00
2019-04-22T19:57:42.251Z,80.60
2019-04-22T20:00:10.975Z,82.40
2019-04-22T20:02:44.855Z,81.30
2019-04-22T20:05:26.515Z,81.30
2019-04-22T20:07:48.807Z,80.90
2019-04-22T20:10:25.219Z,80.90
2019-04-22T20:12:57.301Z,81.80
2019-04-22T20:15:27.207Z,81.80
2019-04-22T20:18:22.621Z,82.90
2019-04-22T20:20:56.125Z,83.90
2019-04-22T20:23:10.223Z,84.30
2019-04-22T20:25:40.752Z,83.90
2019-04-22T20:28:19.377Z,84.10
2019-04-22T20:30:50.673Z,85.30
2019-04-22T20:33:31.927Z,85.80
2019-04-22T20:35:58.625Z,85.10
2019-04-22T20:38:29.708Z,85.20
2019-04-22T20:40:58.113Z,85.80
2019-04-22T20:43:40.334Z,85.90
2019-04-22T20:46:13.695Z,85.40
2019-04-22T20:48:42.646Z,87.20
2019-04-22T20:51:13.998Z,86.10
2019-04-22T20:53:49.189Z,86.30
2019-04-22T20:56:16.047Z,85.80
2019-04-22T20:58:54.577Z,87.30
2019-04-22T21:01:21.043Z,87.10
2019-04-22T21:03:43.739Z,87.60
2019-04-22T21:06:27.630Z,86.80
2019-04-22T21:09:07.330Z,87.00
2019-04-22T21:11:34.336Z,87.80
2019-04-22T21:14:06.395Z,86.90
2019-04-22T21:16:43.202Z,86.70
2019-04-22T21:19:22.029Z,87.50
2019-04-22T21:21:54.982Z,88.00
2019-04-22T21:24:20.552Z,87.80
2019-04-22T21:26:47.120Z,88.10
2019-04-22T21:29:21.813Z,87.20
2019-04-22T21:32:04.206Z,88.10
2019-04-22T21:34:31.721Z,88.00
2019-04-22T21:37:17.417Z,87.70
2019-04-22T21:39:40.211Z,87.50
2019-04-22T21:42:11.841Z,87.70
2019-04-22T21:44:45.330Z,88.10
2019-04-22T21:47:20.700Z,86.50
2019-04-22T21:50:07.447Z,87.20
2019-04-22T21:52:26.064Z,87.00
2019-04-22T21:55:04.660Z,86.60
2019-04-22T21:57:33.497Z,86.50
2019-04-22T22:00:07.792Z,87.30
2019-04-22T22:02:39.227Z,88.10
2019-04-22T22:05:07.199Z,87.30
2019-04-22T22:07:27.659Z,88.60
2019-04-22T22:10:16.894Z,88.60
2019-04-22T22:12:48.763Z,88.40
2019-04-22T22:15:21.010Z,86.80
2019-04-22T22:17:51.381Z,86.40
2019-04-22T22:20:22.701Z,86.90
2019-04-22T22:23:12.963Z,86.30
2019-04-22T22:25:35.068Z,86.30
2019-04-22T22:28:15.973Z,86.70
2019-04-22T22:30:49.289Z,87.00
2019-04-22T22:33:10.950Z,88.30
2019-04-22T22:35:40.823Z,87.70
2019-04-22T22:38:19.458Z,88.10
2019-04-22T22:40:32.793Z,89.60
2019-04-22T22:43:11.686Z,88.90
2019-04-22T22:45:44.990Z,88.70
2019-04-22T22:48:36.488Z,88.30
2019-04-22T22:50:58.518Z,88.00
2019-04-22T22:53:40.501Z,87.50
2019-04-22T22:56:06.322Z,88.50
2019-04-22T22:58:41.208Z,87.50
2019-04-22T23:01:10.068Z,87.60
2019-04-22T23:03:51.118Z,88.30
2019-04-22T23:06:26.514Z,88.20
2019-04-22T23:08:52.672Z,88.70
2019-04-22T23:11:40.387Z,88.30
2019-04-22T23:13:57.796Z,87.90
2019-04-22T23:16:18.172Z,88.00
2019-04-22T23:18:41.733Z,90.00
2019-04-22T23:21:22.317Z,89.90
2019-04-22T23:24:06.056Z,88.80
2019-04-22T23:26:41.904Z,88.30
2019-04-22T23:29:06.183Z,88.20
2019-04-22T23:31:35.485Z,88.20
2019-04-22T23:34:15.773Z,90.00
2019-04-22T23:36:54.223Z,90.50
2019-04-22T23:39:36.974Z,90.40
2019-04-22T23:42:04.799Z,89.90
2019-04-22T23:44:38.067Z,89.50
2019-04-22T23:46:59.836Z,90.00
2019-04-22T23:49:32.167Z,89.10
2019-04-22T23:52:22.772Z,88.40
2019-04-22T23:54:50.860Z,88.00
2019-04-22T23:57:29.256Z,88.30
2019-04-22T23:59:57.096Z,87.90
